SBMN/MAO METAR and TAF weather

Enter ICAO airport designator
Station Type Date Time Source
SBMN METAR 2018/12/15 23:00 UTC NOAA

SBMN 152300Z 02003KT 9999 FEW015 SCT100 26/24 Q1013


Station Type Date Time Source
SBMN Decoded METAR 2018/12/15 23:00 UTC NOAA

Manaus Aeroporto , Brazil (SBMN) 03-09S 059-59W 84M
Dec 15, 2018 - 06:00 PM EST / 2018.12.15 2300 UTC
Wind: from the NNE (020 degrees) at 3 MPH (3 KT):0
Visibility: greater than 7 mile(s):0
Sky conditions: partly cloudy
Temperature: 78 F (26 C)
Dew Point: 75 F (24 C)
Relative Humidity: 88%
Pressure (altimeter): 29.91 in. Hg (1013 hPa)
ob: SBMN 152300Z 02003KT 9999 FEW015 SCT100 26/24 Q1013
cycle: 23

Station Type Date Time Source
SBMN TAF 2018/12/15 18:36 UTC NOAA

TAF TAF SBMN 151600Z 1518/1618 05005KT 9999 SCT018 FEW025TCU TX30/1518Z T N23/1609Z
BECMG 1519/1521 FEW017
BECMG 1523/1601 34002KT FEW010
BECMG 1603/160 5 18002KT
BECMG 1607/1608 06007KT 5000 RA BKN005
BECMG 1610/1612 09002 KT 9999 SCT010
BECMG 1615/1617 06005KT SCT018 FEW025TCU
RMK PDY


Example: see airport list